sensor_id;sensor_type;location;lat;lon;timestamp;pressure;altitude;pressure_sealevel;temperature;humidity
19286;BME280;9776;50.798;6.430;2022-11-18T00:00:25;98241.94;;;9.83;72.14
19286;BME280;9776;50.798;6.430;2022-11-18T00:02:51;98236.66;;;9.83;72.11
19286;BME280;9776;50.798;6.430;2022-11-18T00:05:18;98245.00;;;9.86;71.85
19286;BME280;9776;50.798;6.430;2022-11-18T00:07:45;98245.00;;;9.86;71.86
19286;BME280;9776;50.798;6.430;2022-11-18T00:10:11;98247.25;;;9.89;71.77
19286;BME280;9776;50.798;6.430;2022-11-18T00:12:39;98251.09;;;9.93;71.89
19286;BME280;9776;50.798;6.430;2022-11-18T00:15:23;98252.72;;;9.94;71.63
19286;BME280;9776;50.798;6.430;2022-11-18T00:17:50;98252.34;;;9.97;71.70
19286;BME280;9776;50.798;6.430;2022-11-18T00:20:16;98247.06;;;9.97;71.62
19286;BME280;9776;50.798;6.430;2022-11-18T00:22:44;98249.28;;;9.94;71.95
19286;BME280;9776;50.798;6.430;2022-11-18T00:25:11;98251.91;;;9.94;72.00
19286;BME280;9776;50.798;6.430;2022-11-18T00:27:39;98255.97;;;9.90;72.06
19286;BME280;9776;50.798;6.430;2022-11-18T00:30:07;98264.25;;;9.87;72.21
19286;BME280;9776;50.798;6.430;2022-11-18T00:32:34;98263.78;;;9.77;72.22
19286;BME280;9776;50.798;6.430;2022-11-18T00:35:00;98267.03;;;9.79;72.29
19286;BME280;9776;50.798;6.430;2022-11-18T00:37:27;98261.63;;;9.87;72.42
19286;BME280;9776;50.798;6.430;2022-11-18T00:39:54;98264.66;;;9.90;72.33
19286;BME280;9776;50.798;6.430;2022-11-18T00:42:20;98268.94;;;9.91;72.05
19286;BME280;9776;50.798;6.430;2022-11-18T00:45:06;98259.00;;;9.93;72.13
19286;BME280;9776;50.798;6.430;2022-11-18T00:47:33;98260.19;;;9.91;71.87
19286;BME280;9776;50.798;6.430;2022-11-18T00:50:00;98260.41;;;9.89;71.98
19286;BME280;9776;50.798;6.430;2022-11-18T00:52:26;98268.31;;;9.89;72.10
19286;BME280;9776;50.798;6.430;2022-11-18T00:54:53;98272.94;;;9.87;72.10
19286;BME280;9776;50.798;6.430;2022-11-18T00:57:20;98270.94;;;9.89;72.04
19286;BME280;9776;50.798;6.430;2022-11-18T00:59:46;98276.22;;;9.89;72.14
19286;BME280;9776;50.798;6.430;2022-11-18T01:02:14;98274.81;;;9.93;72.06
19286;BME280;9776;50.798;6.430;2022-11-18T01:04:41;98277.44;;;9.93;72.29
19286;BME280;9776;50.798;6.430;2022-11-18T01:07:07;98284.53;;;9.93;72.33
19286;BME280;9776;50.798;6.430;2022-11-18T01:09:34;98278.69;;;9.97;72.33
19286;BME280;9776;50.798;6.430;2022-11-18T01:12:01;98275.66;;;10.00;72.15
19286;BME280;9776;50.798;6.430;2022-11-18T01:14:45;98284.38;;;10.01;72.14
19286;BME280;9776;50.798;6.430;2022-11-18T01:17:11;98286.00;;;10.02;72.18
19286;BME280;9776;50.798;6.430;2022-11-18T01:19:39;98289.06;;;10.05;72.11
19286;BME280;9776;50.798;6.430;2022-11-18T01:22:06;98295.97;;;10.06;72.29
19286;BME280;9776;50.798;6.430;2022-11-18T01:24:33;98304.69;;;10.07;72.30
19286;BME280;9776;50.798;6.430;2022-11-18T01:27:00;98308.13;;;10.07;72.10
19286;BME280;9776;50.798;6.430;2022-11-18T01:29:27;98301.25;;;10.06;72.39
19286;BME280;9776;50.798;6.430;2022-11-18T01:31:53;98311.78;;;10.06;72.41
19286;BME280;9776;50.798;6.430;2022-11-18T01:34:20;98310.53;;;10.02;72.39
19286;BME280;9776;50.798;6.430;2022-11-18T01:36:51;98309.31;;;9.98;72.60
19286;BME280;9776;50.798;6.430;2022-11-18T01:39:18;98311.09;;;9.91;72.94
19286;BME280;9776;50.798;6.430;2022-11-18T01:41:44;98315.69;;;9.83;72.93
19286;BME280;9776;50.798;6.430;2022-11-18T01:47:11;98316.41;;;9.70;73.19
19286;BME280;9776;50.798;6.430;2022-11-18T01:49:38;98320.47;;;9.66;73.19
19286;BME280;9776;50.798;6.430;2022-11-18T01:52:07;98320.84;;;9.63;73.46
19286;BME280;9776;50.798;6.430;2022-11-18T01:54:36;98322.41;;;9.57;73.35
19286;BME280;9776;50.798;6.430;2022-11-18T01:57:07;98325.59;;;9.53;73.58
19286;BME280;9776;50.798;6.430;2022-11-18T01:59:38;98324.38;;;9.49;73.50
19286;BME280;9776;50.798;6.430;2022-11-18T02:02:09;98339.31;;;9.42;73.78
19286;BME280;9776;50.798;6.430;2022-11-18T02:04:37;98338.00;;;9.31;74.04
19286;BME280;9776;50.798;6.430;2022-11-18T02:07:06;98341.91;;;9.14;74.37
19286;BME280;9776;50.798;6.430;2022-11-18T02:09:34;98340.78;;;9.02;74.92
19286;BME280;9776;50.798;6.430;2022-11-18T02:12:02;98351.22;;;8.95;74.98
19286;BME280;9776;50.798;6.430;2022-11-18T02:14:30;98340.81;;;8.87;75.46
19286;BME280;9776;50.798;6.430;2022-11-18T02:17:06;98347.81;;;8.80;75.44
19286;BME280;9776;50.798;6.430;2022-11-18T02:19:50;98352.22;;;8.73;75.48
19286;BME280;9776;50.798;6.430;2022-11-18T02:22:36;98361.28;;;8.71;75.41
19286;BME280;9776;50.798;6.430;2022-11-18T02:25:17;98360.47;;;8.70;75.63
19286;BME280;9776;50.798;6.430;2022-11-18T02:28:03;98353.56;;;8.69;75.39
19286;BME280;9776;50.798;6.430;2022-11-18T02:30:43;98369.44;;;8.76;75.35
19286;BME280;9776;50.798;6.430;2022-11-18T02:33:16;98364.69;;;8.86;75.23
19286;BME280;9776;50.798;6.430;2022-11-18T02:35:53;98363.56;;;8.95;75.06
19286;BME280;9776;50.798;6.430;2022-11-18T02:38:25;98372.72;;;8.99;74.67
19286;BME280;9776;50.798;6.430;2022-11-18T02:40:55;98374.00;;;9.03;74.88
19286;BME280;9776;50.798;6.430;2022-11-18T02:43:26;98378.22;;;9.04;74.76
19286;BME280;9776;50.798;6.430;2022-11-18T02:45:59;98378.44;;;9.02;74.80
19286;BME280;9776;50.798;6.430;2022-11-18T02:48:28;98381.31;;;9.07;74.85
19286;BME280;9776;50.798;6.430;2022-11-18T02:50:57;98382.75;;;9.10;74.80
19286;BME280;9776;50.798;6.430;2022-11-18T02:53:27;98388.59;;;9.05;74.92
19286;BME280;9776;50.798;6.430;2022-11-18T02:55:56;98388.31;;;9.00;74.90
19286;BME280;9776;50.798;6.430;2022-11-18T02:58:24;98391.50;;;8.96;74.99
19286;BME280;9776;50.798;6.430;2022-11-18T03:00:52;98387.56;;;9.06;75.06
19286;BME280;9776;50.798;6.430;2022-11-18T03:03:25;98390.09;;;9.15;74.56
19286;BME280;9776;50.798;6.430;2022-11-18T03:06:01;98395.47;;;9.28;74.25
19286;BME280;9776;50.798;6.430;2022-11-18T03:08:34;98400.00;;;9.34;74.08
19286;BME280;9776;50.798;6.430;2022-11-18T03:11:08;98406.13;;;9.41;73.83
19286;BME280;9776;50.798;6.430;2022-11-18T03:13:40;98405.38;;;9.47;73.59
19286;BME280;9776;50.798;6.430;2022-11-18T03:16:11;98408.66;;;9.49;73.38
19286;BME280;9776;50.798;6.430;2022-11-18T03:18:48;98409.06;;;9.52;73.36
19286;BME280;9776;50.798;6.430;2022-11-18T03:21:21;98413.09;;;9.48;73.52
19286;BME280;9776;50.798;6.430;2022-11-18T03:23:54;98409.47;;;9.49;73.59
19286;BME280;9776;50.798;6.430;2022-11-18T03:26:24;98411.69;;;9.52;73.52
19286;BME280;9776;50.798;6.430;2022-11-18T03:28:59;98414.38;;;9.59;73.51
19286;BME280;9776;50.798;6.430;2022-11-18T03:31:30;98420.72;;;9.64;73.06
19286;BME280;9776;50.798;6.430;2022-11-18T03:34:04;98426.44;;;9.68;73.14
19286;BME280;9776;50.798;6.430;2022-11-18T03:36:37;98429.50;;;9.72;73.06
19286;BME280;9776;50.798;6.430;2022-11-18T03:39:07;98428.47;;;9.73;73.03
19286;BME280;9776;50.798;6.430;2022-11-18T03:41:40;98433.56;;;9.74;72.92
19286;BME280;9776;50.798;6.430;2022-11-18T03:44:13;98442.91;;;9.77;72.91
19286;BME280;9776;50.798;6.430;2022-11-18T03:46:44;98440.28;;;9.77;72.74
19286;BME280;9776;50.798;6.430;2022-11-18T03:49:18;98446.38;;;9.77;72.67
19286;BME280;9776;50.798;6.430;2022-11-18T03:51:49;98439.28;;;9.78;72.73
19286;BME280;9776;50.798;6.430;2022-11-18T03:54:21;98448.78;;;9.79;72.43
19286;BME280;9776;50.798;6.430;2022-11-18T03:56:53;98445.16;;;9.80;72.71
19286;BME280;9776;50.798;6.430;2022-11-18T03:59:24;98452.25;;;9.79;72.60
19286;BME280;9776;50.798;6.430;2022-11-18T04:01:55;98448.63;;;9.80;72.50
19286;BME280;9776;50.798;6.430;2022-11-18T04:04:25;98455.31;;;9.83;72.65
19286;BME280;9776;50.798;6.430;2022-11-18T04:06:59;98453.50;;;9.83;72.60
19286;BME280;9776;50.798;6.430;2022-11-18T04:09:34;98459.22;;;9.87;72.56
19286;BME280;9776;50.798;6.430;2022-11-18T04:12:06;98461.66;;;9.88;72.59
19286;BME280;9776;50.798;6.430;2022-11-18T04:14:36;98460.66;;;9.89;72.83
19286;BME280;9776;50.798;6.430;2022-11-18T04:17:09;98474.66;;;9.90;72.64
19286;BME280;9776;50.798;6.430;2022-11-18T04:19:37;98470.16;;;9.90;72.60
19286;BME280;9776;50.798;6.430;2022-11-18T04:22:04;98472.63;;;9.92;72.65
19286;BME280;9776;50.798;6.430;2022-11-18T04:24:31;98473.88;;;9.96;72.64
19286;BME280;9776;50.798;6.430;2022-11-18T04:26:58;98479.97;;;9.96;72.54
19286;BME280;9776;50.798;6.430;2022-11-18T04:29:24;98475.88;;;9.94;72.69
19286;BME280;9776;50.798;6.430;2022-11-18T04:31:51;98480.34;;;9.93;72.39
19286;BME280;9776;50.798;6.430;2022-11-18T04:34:18;98490.63;;;9.88;72.87
19286;BME280;9776;50.798;6.430;2022-11-18T04:36:46;98491.00;;;9.85;73.07
19286;BME280;9776;50.798;6.430;2022-11-18T04:39:12;98489.13;;;9.79;73.20
19286;BME280;9776;50.798;6.430;2022-11-18T04:41:39;98496.03;;;9.80;73.14
19286;BME280;9776;50.798;6.430;2022-11-18T04:44:21;98495.59;;;9.77;73.17
19286;BME280;9776;50.798;6.430;2022-11-18T04:46:48;98499.66;;;9.79;73.27
19286;BME280;9776;50.798;6.430;2022-11-18T04:49:14;98507.81;;;9.84;73.19
19286;BME280;9776;50.798;6.430;2022-11-18T04:51:42;98506.22;;;9.83;73.11
19286;BME280;9776;50.798;6.430;2022-11-18T04:54:11;98511.47;;;9.83;73.16
19286;BME280;9776;50.798;6.430;2022-11-18T04:56:38;98515.72;;;9.84;73.21
19286;BME280;9776;50.798;6.430;2022-11-18T04:59:05;98520.75;;;9.79;73.13
19286;BME280;9776;50.798;6.430;2022-11-18T05:01:32;98519.75;;;9.80;73.19
19286;BME280;9776;50.798;6.430;2022-11-18T05:03:59;98526.84;;;9.80;73.28
19286;BME280;9776;50.798;6.430;2022-11-18T05:06:26;98525.47;;;9.84;73.16
19286;BME280;9776;50.798;6.430;2022-11-18T05:08:53;98521.63;;;9.86;73.19
19286;BME280;9776;50.798;6.430;2022-11-18T05:11:21;98518.44;;;9.91;73.10
19286;BME280;9776;50.798;6.430;2022-11-18T05:14:05;98520.88;;;9.92;73.14
19286;BME280;9776;50.798;6.430;2022-11-18T05:16:32;98528.22;;;9.97;72.84
19286;BME280;9776;50.798;6.430;2022-11-18T05:19:00;98532.66;;;9.96;72.77
19286;BME280;9776;50.798;6.430;2022-11-18T05:21:26;98536.13;;;9.97;72.87
19286;BME280;9776;50.798;6.430;2022-11-18T05:23:53;98537.56;;;9.99;72.91
19286;BME280;9776;50.798;6.430;2022-11-18T05:26:21;98536.72;;;9.99;72.93
19286;BME280;9776;50.798;6.430;2022-11-18T05:28:48;98537.19;;;10.02;72.90
19286;BME280;9776;50.798;6.430;2022-11-18T05:31:16;98537.38;;;10.01;72.98
19286;BME280;9776;50.798;6.430;2022-11-18T05:33:43;98541.84;;;10.00;72.93
19286;BME280;9776;50.798;6.430;2022-11-18T05:36:11;98543.03;;;9.98;73.23
19286;BME280;9776;50.798;6.430;2022-11-18T05:38:38;98544.03;;;9.97;73.42
19286;BME280;9776;50.798;6.430;2022-11-18T05:41:06;98550.28;;;9.96;73.09
19286;BME280;9776;50.798;6.430;2022-11-18T05:43:35;98545.00;;;9.96;73.22
19286;BME280;9776;50.798;6.430;2022-11-18T05:46:01;98553.75;;;9.96;73.55
19286;BME280;9776;50.798;6.430;2022-11-18T05:48:28;98555.38;;;9.97;73.47
19286;BME280;9776;50.798;6.430;2022-11-18T05:50:55;98550.13;;;9.97;73.31
19286;BME280;9776;50.798;6.430;2022-11-18T05:53:23;98555.00;;;10.00;73.28
19286;BME280;9776;50.798;6.430;2022-11-18T05:55:53;98554.81;;;10.02;73.33
19286;BME280;9776;50.798;6.430;2022-11-18T05:58:22;98557.28;;;10.03;73.24
19286;BME280;9776;50.798;6.430;2022-11-18T06:00:53;98567.59;;;10.05;73.09
19286;BME280;9776;50.798;6.430;2022-11-18T06:03:25;98561.97;;;10.08;73.25
19286;BME280;9776;50.798;6.430;2022-11-18T06:05:53;98569.88;;;10.08;73.10
19286;BME280;9776;50.798;6.430;2022-11-18T06:08:21;98562.16;;;10.06;73.29
19286;BME280;9776;50.798;6.430;2022-11-18T06:10:50;98579.97;;;10.04;73.45
19286;BME280;9776;50.798;6.430;2022-11-18T06:13:21;98584.44;;;10.04;73.51
19286;BME280;9776;50.798;6.430;2022-11-18T06:15:50;98585.44;;;10.03;73.58
19286;BME280;9776;50.798;6.430;2022-11-18T06:18:20;98587.88;;;10.04;73.55
19286;BME280;9776;50.798;6.430;2022-11-18T06:20:50;98591.97;;;10.07;73.52
19286;BME280;9776;50.798;6.430;2022-11-18T06:23:18;98601.25;;;10.03;73.55
19286;BME280;9776;50.798;6.430;2022-11-18T06:25:45;98602.44;;;10.00;73.41
19286;BME280;9776;50.798;6.430;2022-11-18T06:28:14;98604.09;;;10.01;73.46
19286;BME280;9776;50.798;6.430;2022-11-18T06:30:41;98609.53;;;10.00;73.45
19286;BME280;9776;50.798;6.430;2022-11-18T06:33:09;98617.66;;;9.98;73.71
19286;BME280;9776;50.798;6.430;2022-11-18T06:35:36;98610.09;;;9.95;73.73
19286;BME280;9776;50.798;6.430;2022-11-18T06:38:02;98617.38;;;9.93;73.78
19286;BME280;9776;50.798;6.430;2022-11-18T06:40:29;98620.56;;;9.89;73.78
19286;BME280;9776;50.798;6.430;2022-11-18T06:42:56;98623.56;;;9.86;73.86
19286;BME280;9776;50.798;6.430;2022-11-18T06:45:40;98629.84;;;9.85;73.83
19286;BME280;9776;50.798;6.430;2022-11-18T06:48:30;98631.47;;;9.86;73.72
19286;BME280;9776;50.798;6.430;2022-11-18T06:50:57;98629.00;;;9.84;73.80
19286;BME280;9776;50.798;6.430;2022-11-18T06:53:23;98637.56;;;9.86;73.86
19286;BME280;9776;50.798;6.430;2022-11-18T06:55:50;98644.75;;;9.92;73.53
19286;BME280;9776;50.798;6.430;2022-11-18T06:58:17;98641.44;;;9.90;73.67
19286;BME280;9776;50.798;6.430;2022-11-18T07:00:43;98650.00;;;9.92;73.74
19286;BME280;9776;50.798;6.430;2022-11-18T07:03:10;98656.28;;;9.91;73.71
19286;BME280;9776;50.798;6.430;2022-11-18T07:05:38;98658.69;;;9.93;73.75
19286;BME280;9776;50.798;6.430;2022-11-18T07:08:04;98660.53;;;9.92;73.54
19286;BME280;9776;50.798;6.430;2022-11-18T07:10:31;98667.63;;;9.92;73.51
19286;BME280;9776;50.798;6.430;2022-11-18T07:12:58;98666.00;;;9.91;73.70
19286;BME280;9776;50.798;6.430;2022-11-18T07:15:24;98670.00;;;9.87;73.71
19286;BME280;9776;50.798;6.430;2022-11-18T07:17:51;98672.19;;;9.83;73.61
19286;BME280;9776;50.798;6.430;2022-11-18T07:20:18;98674.38;;;9.80;73.85
19286;BME280;9776;50.798;6.430;2022-11-18T07:22:46;98680.38;;;9.74;74.01
19286;BME280;9776;50.798;6.430;2022-11-18T07:25:13;98682.91;;;9.67;74.08
19286;BME280;9776;50.798;6.430;2022-11-18T07:27:39;98684.66;;;9.60;74.28
19286;BME280;9776;50.798;6.430;2022-11-18T07:30:07;98685.19;;;9.55;74.37
19286;BME280;9776;50.798;6.430;2022-11-18T07:32:33;98687.78;;;9.49;74.26
19286;BME280;9776;50.798;6.430;2022-11-18T07:35:00;98691.38;;;9.48;74.47
19286;BME280;9776;50.798;6.430;2022-11-18T07:37:27;98690.94;;;9.44;74.57
19286;BME280;9776;50.798;6.430;2022-11-18T07:39:55;98692.13;;;9.42;74.47
19286;BME280;9776;50.798;6.430;2022-11-18T07:42:24;98701.41;;;9.38;74.50
19286;BME280;9776;50.798;6.430;2022-11-18T07:44:50;98698.09;;;9.36;74.60
19286;BME280;9776;50.798;6.430;2022-11-18T07:47:17;98704.03;;;9.38;74.62
19286;BME280;9776;50.798;6.430;2022-11-18T07:49:44;98711.72;;;9.39;74.43
19286;BME280;9776;50.798;6.430;2022-11-18T07:52:10;98706.66;;;9.38;74.43
19286;BME280;9776;50.798;6.430;2022-11-18T07:54:37;98711.53;;;9.41;74.37
19286;BME280;9776;50.798;6.430;2022-11-18T07:57:05;98714.38;;;9.39;74.41
19286;BME280;9776;50.798;6.430;2022-11-18T07:59:32;98726.97;;;9.44;74.26
19286;BME280;9776;50.798;6.430;2022-11-18T08:01:58;98721.34;;;9.47;74.35
19286;BME280;9776;50.798;6.430;2022-11-18T08:04:25;98730.34;;;9.52;74.05
19286;BME280;9776;50.798;6.430;2022-11-18T08:06:51;98736.06;;;9.56;74.01
19286;BME280;9776;50.798;6.430;2022-11-18T08:09:18;98728.81;;;9.58;74.15
19286;BME280;9776;50.798;6.430;2022-11-18T08:11:45;98743.59;;;9.59;73.90
19286;BME280;9776;50.798;6.430;2022-11-18T08:14:13;98747.53;;;9.63;73.91
19286;BME280;9776;50.798;6.430;2022-11-18T08:16:40;98748.50;;;9.62;74.07
19286;BME280;9776;50.798;6.430;2022-11-18T08:19:12;98754.41;;;9.64;73.98
19286;BME280;9776;50.798;6.430;2022-11-18T08:21:38;98756.31;;;9.70;73.90
19286;BME280;9776;50.798;6.430;2022-11-18T08:24:05;98757.13;;;9.70;73.68
19286;BME280;9776;50.798;6.430;2022-11-18T08:26:32;98763.84;;;9.73;73.61
19286;BME280;9776;50.798;6.430;2022-11-18T08:28:58;98763.84;;;9.73;73.64
19286;BME280;9776;50.798;6.430;2022-11-18T08:31:28;98753.97;;;9.75;73.50
19286;BME280;9776;50.798;6.430;2022-11-18T08:33:56;98765.31;;;9.76;73.58
19286;BME280;9776;50.798;6.430;2022-11-18T08:36:25;98767.78;;;9.77;73.61
19286;BME280;9776;50.798;6.430;2022-11-18T08:38:54;98767.78;;;9.77;73.38
19286;BME280;9776;50.798;6.430;2022-11-18T08:41:26;98779.41;;;9.83;73.04
19286;BME280;9776;50.798;6.430;2022-11-18T08:43:53;98762.78;;;9.82;73.20
19286;BME280;9776;50.798;6.430;2022-11-18T08:46:20;98772.94;;;9.85;73.20
19286;BME280;9776;50.798;6.430;2022-11-18T08:48:48;98769.13;;;9.88;72.99
19286;BME280;9776;50.798;6.430;2022-11-18T08:51:15;98773.22;;;9.90;73.05
19286;BME280;9776;50.798;6.430;2022-11-18T08:53:42;98780.13;;;9.91;72.89
19286;BME280;9776;50.798;6.430;2022-11-18T08:56:11;98773.50;;;9.95;72.67
19286;BME280;9776;50.798;6.430;2022-11-18T08:58:40;98784.66;;;9.97;72.69
19286;BME280;9776;50.798;6.430;2022-11-18T09:01:07;98777.59;;;9.98;72.62
19286;BME280;9776;50.798;6.430;2022-11-18T09:03:34;98787.94;;;9.99;72.49
19286;BME280;9776;50.798;6.430;2022-11-18T09:06:06;98787.41;;;10.04;72.08
19286;BME280;9776;50.798;6.430;2022-11-18T09:08:34;98787.03;;;10.07;72.10
19286;BME280;9776;50.798;6.430;2022-11-18T09:11:04;98786.84;;;10.08;72.08
19286;BME280;9776;50.798;6.430;2022-11-18T09:13:31;98793.38;;;10.12;72.01
19286;BME280;9776;50.798;6.430;2022-11-18T09:15:57;98788.78;;;10.14;71.83
19286;BME280;9776;50.798;6.430;2022-11-18T09:18:24;98795.31;;;10.18;71.51
19286;BME280;9776;50.798;6.430;2022-11-18T09:20:54;98791.50;;;10.21;71.40
19286;BME280;9776;50.798;6.430;2022-11-18T09:23:22;98807.38;;;10.27;71.08
19286;BME280;9776;50.798;6.430;2022-11-18T09:25:56;98803.56;;;10.30;70.86
19286;BME280;9776;50.798;6.430;2022-11-18T09:28:22;98800.38;;;10.35;70.95
19286;BME280;9776;50.798;6.430;2022-11-18T09:30:49;98807.91;;;10.38;70.87
19286;BME280;9776;50.798;6.430;2022-11-18T09:33:16;98808.16;;;10.43;70.55
19286;BME280;9776;50.798;6.430;2022-11-18T09:35:43;98810.28;;;10.47;70.37
19286;BME280;9776;50.798;6.430;2022-11-18T09:38:10;98812.97;;;10.54;70.26
19286;BME280;9776;50.798;6.430;2022-11-18T09:40:44;98814.03;;;10.59;69.99
19286;BME280;9776;50.798;6.430;2022-11-18T09:43:19;98812.47;;;10.65;69.71
19286;BME280;9776;50.798;6.430;2022-11-18T09:45:55;98824.31;;;10.69;69.64
19286;BME280;9776;50.798;6.430;2022-11-18T09:48:24;98820.09;;;10.74;69.41
19286;BME280;9776;50.798;6.430;2022-11-18T09:51:11;98832.91;;;10.77;69.28
19286;BME280;9776;50.798;6.430;2022-11-18T09:53:40;98837.44;;;10.83;69.06
19286;BME280;9776;50.798;6.430;2022-11-18T09:56:13;98838.72;;;10.88;68.72
19286;BME280;9776;50.798;6.430;2022-11-18T09:58:41;98839.13;;;10.91;68.77
19286;BME280;9776;50.798;6.430;2022-11-18T10:01:11;98842.22;;;10.95;68.49
19286;BME280;9776;50.798;6.430;2022-11-18T10:03:39;98844.94;;;11.01;68.37
19286;BME280;9776;50.798;6.430;2022-11-18T10:06:17;98844.38;;;11.06;67.95
19286;BME280;9776;50.798;6.430;2022-11-18T10:08:56;98855.00;;;11.12;67.89
19286;BME280;9776;50.798;6.430;2022-11-18T10:11:30;98850.63;;;11.19;67.78
19286;BME280;9776;50.798;6.430;2022-11-18T10:14:07;98858.41;;;11.27;67.45
19286;BME280;9776;50.798;6.430;2022-11-18T10:16:43;98861.72;;;11.36;67.29
19286;BME280;9776;50.798;6.430;2022-11-18T10:19:24;98866.06;;;11.44;66.79
19286;BME280;9776;50.798;6.430;2022-11-18T10:22:05;98868.94;;;11.49;66.80
19286;BME280;9776;50.798;6.430;2022-11-18T10:24:41;98870.69;;;11.63;66.17
19286;BME280;9776;50.798;6.430;2022-11-18T10:27:13;98866.16;;;11.78;65.84
19286;BME280;9776;50.798;6.430;2022-11-18T10:29:40;98875.00;;;11.91;65.55
19286;BME280;9776;50.798;6.430;2022-11-18T10:32:11;98868.97;;;12.04;65.15
19286;BME280;9776;50.798;6.430;2022-11-18T10:34:46;98876.78;;;12.19;64.45
19286;BME280;9776;50.798;6.430;2022-11-18T10:37:21;98874.50;;;12.43;64.23
19286;BME280;9776;50.798;6.430;2022-11-18T10:39:49;98870.44;;;13.08;62.89
19286;BME280;9776;50.798;6.430;2022-11-18T10:42:24;98871.63;;;14.43;59.59
19286;BME280;9776;50.798;6.430;2022-11-18T10:44:53;98872.06;;;15.54;56.94
19286;BME280;9776;50.798;6.430;2022-11-18T10:47:26;98876.22;;;16.72;54.31
19286;BME280;9776;50.798;6.430;2022-11-18T10:49:56;98873.50;;;17.49;52.33
19286;BME280;9776;50.798;6.430;2022-11-18T10:52:23;98871.03;;;17.36;52.53
19286;BME280;9776;50.798;6.430;2022-11-18T10:55:19;98865.19;;;17.69;51.47
19286;BME280;9776;50.798;6.430;2022-11-18T10:57:50;98870.34;;;17.94;50.65
19286;BME280;9776;50.798;6.430;2022-11-18T11:00:33;98867.41;;;17.72;50.87
19286;BME280;9776;50.798;6.430;2022-11-18T11:03:23;98867.53;;;16.94;52.18
19286;BME280;9776;50.798;6.430;2022-11-18T11:06:31;98869.06;;;15.93;54.64
19286;BME280;9776;50.798;6.430;2022-11-18T11:09:01;98880.00;;;15.60;55.20
19286;BME280;9776;50.798;6.430;2022-11-18T11:11:29;98885.81;;;15.13;56.11
19286;BME280;9776;50.798;6.430;2022-11-18T11:14:03;98880.63;;;14.87;56.26
19286;BME280;9776;50.798;6.430;2022-11-18T11:16:35;98883.53;;;14.85;56.57
19286;BME280;9776;50.798;6.430;2022-11-18T11:19:08;98888.31;;;15.08;55.65
19286;BME280;9776;50.798;6.430;2022-11-18T11:21:37;98893.78;;;15.13;55.46
19286;BME280;9776;50.798;6.430;2022-11-18T11:24:09;98885.56;;;15.21;55.00
19286;BME280;9776;50.798;6.430;2022-11-18T11:26:43;98885.47;;;15.34;54.70
19286;BME280;9776;50.798;6.430;2022-11-18T11:29:32;98888.00;;;15.60;53.95
19286;BME280;9776;50.798;6.430;2022-11-18T11:32:09;98887.34;;;15.89;53.31
19286;BME280;9776;50.798;6.430;2022-11-18T11:34:43;98891.00;;;16.56;52.31
19286;BME280;9776;50.798;6.430;2022-11-18T11:37:21;98889.81;;;17.71;49.65
19286;BME280;9776;50.798;6.430;2022-11-18T11:40:02;98898.72;;;18.81;47.42
19286;BME280;9776;50.798;6.430;2022-11-18T11:42:38;98893.59;;;19.64;45.73
19286;BME280;9776;50.798;6.430;2022-11-18T11:45:23;98900.59;;;20.20;44.50
19286;BME280;9776;50.798;6.430;2022-11-18T11:48:19;98899.25;;;20.01;44.57
19286;BME280;9776;50.798;6.430;2022-11-18T11:50:51;98908.56;;;19.20;46.00
19286;BME280;9776;50.798;6.430;2022-11-18T11:53:33;98910.38;;;18.40;47.21
19286;BME280;9776;50.798;6.430;2022-11-18T11:56:10;98915.34;;;17.79;48.32
19286;BME280;9776;50.798;6.430;2022-11-18T11:58:58;98913.47;;;17.38;48.95
19286;BME280;9776;50.798;6.430;2022-11-18T12:01:38;98911.50;;;16.85;49.90
19286;BME280;9776;50.798;6.430;2022-11-18T12:04:17;98917.88;;;16.48;50.69
19286;BME280;9776;50.798;6.430;2022-11-18T12:06:51;98913.84;;;16.21;51.22
19286;BME280;9776;50.798;6.430;2022-11-18T12:09:26;98910.22;;;15.90;51.54
19286;BME280;9776;50.798;6.430;2022-11-18T12:12:00;98914.59;;;15.60;52.32
19286;BME280;9776;50.798;6.430;2022-11-18T12:14:34;98910.22;;;15.34;52.71
19286;BME280;9776;50.798;6.430;2022-11-18T12:17:13;98920.41;;;15.06;53.24
19286;BME280;9776;50.798;6.430;2022-11-18T12:19:41;98928.09;;;14.83;53.83
19286;BME280;9776;50.798;6.430;2022-11-18T12:22:08;98929.53;;;14.72;54.09
19286;BME280;9776;50.798;6.430;2022-11-18T12:24:36;98925.84;;;14.73;53.69
19286;BME280;9776;50.798;6.430;2022-11-18T12:27:09;98928.53;;;14.67;54.06
19286;BME280;9776;50.798;6.430;2022-11-18T12:29:52;98934.72;;;14.48;54.24
19286;BME280;9776;50.798;6.430;2022-11-18T12:32:30;98927.59;;;14.35;54.31
19286;BME280;9776;50.798;6.430;2022-11-18T12:35:01;98929.84;;;14.25;54.82
19286;BME280;9776;50.798;6.430;2022-11-18T12:37:57;98927.00;;;14.07;55.16
19286;BME280;9776;50.798;6.430;2022-11-18T12:40:38;98932.31;;;14.13;54.97
19286;BME280;9776;50.798;6.430;2022-11-18T12:46:48;98927.81;;;14.01;55.35
19286;BME280;9776;50.798;6.430;2022-11-18T12:52:51;98924.78;;;13.91;55.46
19286;BME280;9776;50.798;6.430;2022-11-18T12:55:30;98920.91;;;13.93;55.37
19286;BME280;9776;50.798;6.430;2022-11-18T12:57:57;98926.59;;;13.84;55.81
19286;BME280;9776;50.798;6.430;2022-11-18T13:00:32;98928.84;;;13.80;56.10
19286;BME280;9776;50.798;6.430;2022-11-18T13:03:26;98932.72;;;13.78;55.88
19286;BME280;9776;50.798;6.430;2022-11-18T13:06:05;98935.78;;;13.75;56.22
19286;BME280;9776;50.798;6.430;2022-11-18T13:08:33;98934.34;;;13.72;56.16
19286;BME280;9776;50.798;6.430;2022-11-18T13:11:06;98937.81;;;13.73;56.33
19286;BME280;9776;50.798;6.430;2022-11-18T13:13:52;98938.44;;;13.61;56.57
19286;BME280;9776;50.798;6.430;2022-11-18T13:16:40;98931.88;;;13.57;56.49
19286;BME280;9776;50.798;6.430;2022-11-18T13:19:26;98935.75;;;13.48;56.56
19286;BME280;9776;50.798;6.430;2022-11-18T13:21:54;98945.75;;;13.46;56.77
19286;BME280;9776;50.798;6.430;2022-11-18T13:24:44;98942.88;;;13.41;57.04
19286;BME280;9776;50.798;6.430;2022-11-18T13:27:19;98941.03;;;13.35;56.77
19286;BME280;9776;50.798;6.430;2022-11-18T13:29:50;98936.31;;;13.31;57.17
19286;BME280;9776;50.798;6.430;2022-11-18T13:32:21;98941.63;;;13.31;57.36
19286;BME280;9776;50.798;6.430;2022-11-18T13:34:50;98938.75;;;13.26;57.32
19286;BME280;9776;50.798;6.430;2022-11-18T13:37:20;98952.22;;;13.24;57.58
19286;BME280;9776;50.798;6.430;2022-11-18T13:39:49;98949.19;;;13.27;57.17
19286;BME280;9776;50.798;6.430;2022-11-18T13:42:18;98950.59;;;13.30;57.21
19286;BME280;9776;50.798;6.430;2022-11-18T13:44:51;98949.56;;;13.24;57.54
19286;BME280;9776;50.798;6.430;2022-11-18T13:47:23;98953.22;;;13.23;57.54